createdAt,value
2022-10-24T00:01:36.197Z,8.40
2022-10-24T00:06:36.490Z,7.07
2022-10-24T00:09:05.021Z,16.17
2022-10-24T00:11:32.655Z,10.50
2022-10-24T00:14:02.064Z,13.20
2022-10-24T00:16:29.937Z,9.70
2022-10-24T00:18:57.687Z,6.93
2022-10-24T00:21:25.359Z,7.15
2022-10-24T00:23:53.247Z,11.05
2022-10-24T00:26:20.856Z,5.97
2022-10-24T00:28:48.574Z,10.32
2022-10-24T00:31:20.051Z,9.07
2022-10-24T00:33:47.878Z,6.25
2022-10-24T00:36:18.232Z,11.05
2022-10-24T00:38:45.904Z,11.25
2022-10-24T00:41:16.008Z,11.13
2022-10-24T00:43:43.704Z,7.35
2022-10-24T00:46:11.881Z,10.60
2022-10-24T00:48:43.709Z,9.43
2022-10-24T00:51:17.432Z,8.68
2022-10-24T00:53:48.589Z,8.93
2022-10-24T00:56:20.507Z,7.55
2022-10-24T00:58:51.043Z,10.70
2022-10-24T01:01:19.061Z,7.93
2022-10-24T01:03:48.099Z,8.98
2022-10-24T01:06:30.318Z,11.93
2022-10-24T01:09:10.184Z,12.45
2022-10-24T01:11:51.882Z,15.07
2022-10-24T01:14:31.187Z,8.98
2022-10-24T01:17:08.470Z,10.55
2022-10-24T01:20:08.734Z,7.75
2022-10-24T01:22:46.988Z,14.65
2022-10-24T01:25:19.386Z,13.93
2022-10-24T01:28:02.010Z,12.18
2022-10-24T01:30:35.780Z,10.15
2022-10-24T01:33:07.717Z,18.67
2022-10-24T01:35:40.433Z,10.90
2022-10-24T01:38:14.435Z,12.65
2022-10-24T01:40:50.698Z,15.05
2022-10-24T01:43:23.116Z,8.07
2022-10-24T01:45:58.193Z,6.78
2022-10-24T01:48:27.266Z,8.48
2022-10-24T01:50:57.080Z,10.15
2022-10-24T01:53:28.788Z,14.88
2022-10-24T01:55:57.447Z,14.10
2022-10-24T01:58:25.133Z,8.52
2022-10-24T02:00:59.582Z,9.18
2022-10-24T02:03:32.297Z,11.52
2022-10-24T02:06:04.439Z,10.15
2022-10-24T02:08:35.556Z,10.05
2022-10-24T02:11:07.433Z,9.18
2022-10-24T02:13:40.625Z,7.13
2022-10-24T02:16:10.633Z,6.80
2022-10-24T02:18:40.550Z,8.77
2022-10-24T02:21:18.714Z,8.50
2022-10-24T02:23:52.973Z,5.82
2022-10-24T02:26:27.841Z,6.13
2022-10-24T02:28:59.534Z,6.90
2022-10-24T02:31:34.460Z,12.38
2022-10-24T02:34:03.143Z,10.95
2022-10-24T02:36:32.458Z,9.52
2022-10-24T02:41:58.788Z,13.82
2022-10-24T02:44:29.194Z,6.65
2022-10-24T02:47:02.116Z,7.93
2022-10-24T02:49:29.903Z,6.22
2022-10-24T02:51:57.854Z,8.65
2022-10-24T02:54:25.474Z,5.65
2022-10-24T02:56:56.101Z,6.32
2022-10-24T02:59:23.723Z,4.18
2022-10-24T03:01:51.393Z,5.30
2022-10-24T03:04:20.433Z,8.57
2022-10-24T03:06:48.074Z,5.85
2022-10-24T03:09:15.720Z,6.82
2022-10-24T03:11:43.589Z,5.20
2022-10-24T03:14:11.236Z,8.98
2022-10-24T03:16:38.914Z,7.70
2022-10-24T03:19:08.424Z,10.48
2022-10-24T03:21:37.558Z,11.00
2022-10-24T03:24:05.614Z,9.18
2022-10-24T03:26:33.404Z,6.63
2022-10-24T03:29:01.290Z,6.60
2022-10-24T03:31:30.685Z,6.75
2022-10-24T03:33:58.661Z,9.10
2022-10-24T03:36:27.061Z,7.30
2022-10-24T03:38:56.090Z,10.32
2022-10-24T03:41:23.729Z,4.43
2022-10-24T03:43:51.468Z,5.65
2022-10-24T03:46:19.111Z,10.32
2022-10-24T03:48:46.766Z,4.78
2022-10-24T03:51:14.440Z,6.18
2022-10-24T03:53:42.099Z,6.68
2022-10-24T03:56:11.168Z,6.20
2022-10-24T03:58:38.814Z,8.65
2022-10-24T04:01:06.574Z,6.95
2022-10-24T04:03:34.280Z,7.60
2022-10-24T04:06:02.106Z,6.18
2022-10-24T04:08:29.738Z,7.00
2022-10-24T04:10:57.389Z,7.07
2022-10-24T04:13:26.462Z,7.03
2022-10-24T04:15:54.186Z,5.82
2022-10-24T04:18:21.910Z,8.77
2022-10-24T04:20:49.548Z,7.60
2022-10-24T04:23:17.378Z,5.78
2022-10-24T04:25:45.135Z,7.85
2022-10-24T04:28:12.931Z,9.38
2022-10-24T04:33:14.602Z,7.10
2022-10-24T04:35:48.569Z,4.82
2022-10-24T04:38:16.258Z,6.43
2022-10-24T04:40:46.822Z,6.93
2022-10-24T04:43:14.481Z,10.63
2022-10-24T04:45:43.469Z,9.80
2022-10-24T04:48:11.321Z,8.27
2022-10-24T04:50:40.900Z,10.20
2022-10-24T04:53:09.293Z,6.72
2022-10-24T04:58:10.150Z,12.07
2022-10-24T05:00:37.890Z,12.10
2022-10-24T05:03:06.909Z,11.82
2022-10-24T05:05:34.564Z,13.10
2022-10-24T05:08:02.179Z,8.27
2022-10-24T05:10:29.851Z,16.35
2022-10-24T05:12:57.500Z,13.77
2022-10-24T05:15:25.454Z,12.65
2022-10-24T05:17:53.082Z,8.40
2022-10-24T05:20:22.071Z,11.15
2022-10-24T05:22:49.795Z,12.20
2022-10-24T05:25:17.690Z,12.13
2022-10-24T05:27:45.324Z,14.52
2022-10-24T05:30:13.797Z,12.82
2022-10-24T05:32:41.657Z,12.95
2022-10-24T05:35:10.668Z,11.98
2022-10-24T05:37:39.830Z,12.55
2022-10-24T05:40:09.946Z,15.05
2022-10-24T05:42:38.663Z,15.48
2022-10-24T05:45:07.263Z,8.95
2022-10-24T05:47:35.011Z,10.00
2022-10-24T05:50:02.826Z,9.45
2022-10-24T05:52:30.504Z,15.63
2022-10-24T05:55:08.003Z,11.75
2022-10-24T05:57:36.758Z,10.55
2022-10-24T06:00:06.458Z,13.52
2022-10-24T06:02:34.261Z,8.88
2022-10-24T06:05:02.209Z,15.20
2022-10-24T06:07:30.308Z,10.50
2022-10-24T06:09:59.449Z,7.20
2022-10-24T06:12:27.203Z,10.05
2022-10-24T06:14:57.631Z,10.45
2022-10-24T06:17:25.386Z,9.65
2022-10-24T06:19:53.133Z,11.80
2022-10-24T06:22:23.938Z,9.20
2022-10-24T06:24:51.771Z,14.40
2022-10-24T06:27:20.801Z,8.45
2022-10-24T06:29:48.491Z,10.57
2022-10-24T06:32:16.123Z,9.77
2022-10-24T06:34:43.769Z,8.73
2022-10-24T06:37:11.625Z,10.70
2022-10-24T06:39:39.329Z,5.90
2022-10-24T06:42:07.083Z,14.02
2022-10-24T06:44:36.609Z,6.57
2022-10-24T06:47:04.375Z,7.55
2022-10-24T06:49:32.073Z,6.35
2022-10-24T06:51:59.773Z,8.02
2022-10-24T06:54:30.134Z,6.25
2022-10-24T06:56:58.255Z,7.03
2022-10-24T06:59:26.277Z,8.48
2022-10-24T07:01:55.372Z,6.47
2022-10-24T07:04:23.193Z,5.97
2022-10-24T07:06:50.918Z,10.50
2022-10-24T07:09:18.832Z,6.30
2022-10-24T07:11:46.961Z,5.55
2022-10-24T07:14:14.726Z,8.32
2022-10-24T07:16:42.364Z,8.00
2022-10-24T07:19:12.134Z,9.10
2022-10-24T07:21:39.867Z,9.15
2022-10-24T07:24:08.643Z,4.50
2022-10-24T07:26:36.368Z,7.03
2022-10-24T07:29:04.800Z,2.95
2022-10-24T07:31:35.610Z,6.72
2022-10-24T07:34:05.232Z,5.60
2022-10-24T07:36:34.759Z,9.40
2022-10-24T07:39:03.037Z,9.55
2022-10-24T07:41:33.079Z,5.50
2022-10-24T07:44:02.271Z,6.82
2022-10-24T07:46:30.895Z,5.25
2022-10-24T07:48:58.735Z,4.25
2022-10-24T07:51:28.530Z,8.10
2022-10-24T07:53:58.043Z,6.93
2022-10-24T07:56:25.915Z,6.78
2022-10-24T07:58:56.523Z,4.35
2022-10-24T08:01:26.779Z,7.60
2022-10-24T08:03:54.850Z,8.05
2022-10-24T08:06:25.310Z,6.95
2022-10-24T08:08:53.098Z,11.02
2022-10-24T08:11:24.094Z,4.60
2022-10-24T08:13:53.189Z,6.72
2022-10-24T08:16:23.031Z,8.52
2022-10-24T08:18:52.056Z,8.65
2022-10-24T08:21:21.383Z,7.10
2022-10-24T08:23:51.175Z,9.57
2022-10-24T08:26:21.525Z,5.50
2022-10-24T08:28:51.055Z,5.65
2022-10-24T08:31:21.166Z,6.20
2022-10-24T08:33:49.630Z,9.25
2022-10-24T08:36:21.751Z,7.90
2022-10-24T08:38:49.450Z,9.93
2022-10-24T08:41:25.196Z,6.90
2022-10-24T08:43:54.529Z,8.40
2022-10-24T08:46:38.155Z,8.20
2022-10-24T08:49:16.145Z,8.10
2022-10-24T08:51:48.727Z,5.18
2022-10-24T08:54:22.690Z,5.90
2022-10-24T08:56:52.942Z,9.90
2022-10-24T08:59:22.275Z,5.15
2022-10-24T09:01:53.736Z,6.35
2022-10-24T09:04:25.995Z,5.55
2022-10-24T09:06:56.114Z,7.05
2022-10-24T09:09:29.694Z,6.40
2022-10-24T09:12:02.496Z,7.10
2022-10-24T09:14:33.021Z,8.88
2022-10-24T09:17:04.209Z,8.60
2022-10-24T09:19:33.718Z,8.65
2022-10-24T09:22:02.349Z,15.23
2022-10-24T09:24:36.601Z,16.73
2022-10-24T09:27:06.892Z,10.07
2022-10-24T09:29:35.984Z,7.40
2022-10-24T09:32:04.553Z,8.63
2022-10-24T09:34:32.206Z,10.43
2022-10-24T09:36:59.901Z,7.20
2022-10-24T09:39:30.935Z,12.05
2022-10-24T09:41:59.982Z,10.82
2022-10-24T09:44:41.030Z,6.97
2022-10-24T09:47:26.150Z,7.97
2022-10-24T09:49:54.083Z,4.77
2022-10-24T09:52:24.028Z,7.13
2022-10-24T09:55:07.767Z,10.60
2022-10-24T09:57:41.053Z,7.75
2022-10-24T10:00:22.527Z,5.88
2022-10-24T10:02:59.520Z,8.05
2022-10-24T10:05:27.270Z,11.70
2022-10-24T10:07:54.946Z,5.93
2022-10-24T10:10:35.038Z,6.38
2022-10-24T10:13:18.984Z,7.97
2022-10-24T10:15:53.244Z,12.45
2022-10-24T10:18:28.029Z,7.85
2022-10-24T10:21:05.202Z,6.60
2022-10-24T10:23:36.241Z,11.52
2022-10-24T10:26:17.428Z,8.73
2022-10-24T10:28:52.443Z,8.02
2022-10-24T10:31:27.088Z,6.95
2022-10-24T10:34:21.362Z,7.33
2022-10-24T10:37:05.512Z,7.95
2022-10-24T10:39:48.811Z,7.70
2022-10-24T10:42:22.625Z,6.15
2022-10-24T10:45:01.487Z,7.18
2022-10-24T10:47:43.494Z,8.88
2022-10-24T10:50:26.394Z,9.18
2022-10-24T10:53:00.009Z,10.68
2022-10-24T10:55:36.154Z,10.13
2022-10-24T10:58:16.877Z,11.93
2022-10-24T11:00:58.189Z,9.65
2022-10-24T11:03:38.444Z,7.55
2022-10-24T11:06:23.295Z,8.02
2022-10-24T11:09:08.479Z,10.40
2022-10-24T11:11:42.637Z,6.90
2022-10-24T11:14:23.485Z,7.50
2022-10-24T11:16:54.591Z,13.52
2022-10-24T11:19:30.103Z,7.85
2022-10-24T11:24:28.476Z,7.88
2022-10-24T11:27:03.142Z,10.27
2022-10-24T11:29:34.394Z,8.87
2022-10-24T11:32:07.180Z,7.72
2022-10-24T11:34:47.674Z,7.70
2022-10-24T11:37:19.959Z,6.90
2022-10-24T11:39:53.660Z,10.10
2022-10-24T11:42:28.285Z,10.15
2022-10-24T11:45:02.385Z,13.90
2022-10-24T11:47:47.503Z,8.98
2022-10-24T11:50:26.613Z,5.73
2022-10-24T11:53:05.014Z,7.72
2022-10-24T11:55:40.756Z,4.40
2022-10-24T11:58:17.301Z,9.02
2022-10-24T12:01:08.843Z,9.55
2022-10-24T12:04:03.491Z,9.50
2022-10-24T12:06:52.803Z,7.32
2022-10-24T12:09:44.707Z,8.70
2022-10-24T12:12:48.016Z,9.55
2022-10-24T12:15:37.674Z,7.50
2022-10-24T12:18:24.127Z,10.43
2022-10-24T12:20:53.695Z,6.43
2022-10-24T12:23:27.455Z,6.40
2022-10-24T12:26:06.857Z,6.95
2022-10-24T12:28:35.847Z,7.70
2022-10-24T12:31:25.324Z,9.15
2022-10-24T12:34:34.401Z,5.18
2022-10-24T12:37:08.190Z,5.57
2022-10-24T12:39:39.373Z,8.40
2022-10-24T12:42:15.518Z,6.43
2022-10-24T12:44:47.392Z,9.85
2022-10-24T12:47:36.654Z,5.03
2022-10-24T12:50:41.997Z,6.32
2022-10-24T12:53:35.882Z,10.25
2022-10-24T12:56:22.714Z,8.35
2022-10-24T12:59:05.529Z,11.57
2022-10-24T13:01:35.654Z,7.47
2022-10-24T13:04:40.159Z,6.88
2022-10-24T13:07:29.366Z,8.25
2022-10-24T13:10:10.590Z,7.15
2022-10-24T13:12:59.579Z,6.20
2022-10-24T13:15:36.883Z,8.82
2022-10-24T13:18:19.542Z,7.35
2022-10-24T13:20:50.196Z,8.23
2022-10-24T13:23:22.158Z,5.47
2022-10-24T13:25:51.884Z,3.85
2022-10-24T13:28:40.633Z,11.80
2022-10-24T13:31:40.786Z,11.73
2022-10-24T13:34:16.687Z,6.18
2022-10-24T13:36:46.405Z,6.20
2022-10-24T13:39:19.415Z,8.00
2022-10-24T13:41:51.009Z,6.28
2022-10-24T13:44:27.814Z,10.07
2022-10-24T13:47:01.818Z,6.97
2022-10-24T13:49:32.788Z,5.63
2022-10-24T13:52:07.919Z,6.82
2022-10-24T13:54:39.064Z,5.75
2022-10-24T13:57:25.318Z,6.82
2022-10-24T14:00:00.012Z,6.30
2022-10-24T14:02:32.415Z,8.00
2022-10-24T14:05:01.559Z,4.18
2022-10-24T14:07:31.099Z,7.85
2022-10-24T14:10:03.665Z,4.75
2022-10-24T14:12:34.184Z,8.80
2022-10-24T14:15:03.852Z,5.75
2022-10-24T14:17:33.641Z,4.85
2022-10-24T14:20:03.585Z,5.28
2022-10-24T14:22:39.696Z,5.00
2022-10-24T14:25:08.055Z,5.47
2022-10-24T14:27:36.513Z,6.63
2022-10-24T14:30:06.722Z,11.25
2022-10-24T14:32:34.441Z,7.93
2022-10-24T14:35:03.109Z,7.35
2022-10-24T14:37:34.328Z,5.68
2022-10-24T14:40:02.739Z,5.10
2022-10-24T14:42:31.793Z,7.40
2022-10-24T14:45:00.334Z,7.18
2022-10-24T14:47:31.929Z,4.47
2022-10-24T14:49:59.793Z,7.75
2022-10-24T14:52:32.125Z,7.82
2022-10-24T14:55:04.392Z,6.18
2022-10-24T14:57:34.907Z,5.10
2022-10-24T15:00:08.335Z,4.25
2022-10-24T15:02:43.183Z,7.75
2022-10-24T15:05:31.160Z,5.82
2022-10-24T15:08:22.745Z,5.05
2022-10-24T15:11:01.661Z,5.65
2022-10-24T15:13:33.657Z,3.08
2022-10-24T15:16:06.735Z,4.18
2022-10-24T15:18:43.538Z,2.25
2022-10-24T15:21:16.100Z,6.25
2022-10-24T15:23:47.947Z,1.88
2022-10-24T15:26:20.799Z,3.63
2022-10-24T15:28:50.730Z,4.43
2022-10-24T15:31:20.399Z,2.92
2022-10-24T15:33:49.880Z,3.20
2022-10-24T15:36:23.634Z,3.17
2022-10-24T15:38:56.003Z,5.53
2022-10-24T15:41:24.014Z,2.78
2022-10-24T15:43:51.814Z,2.22
2022-10-24T15:46:19.548Z,1.55
2022-10-24T15:48:47.215Z,1.27
2022-10-24T15:51:18.462Z,2.90
2022-10-24T15:53:47.977Z,4.78
2022-10-24T15:56:15.723Z,1.50
2022-10-24T15:58:43.872Z,3.40
2022-10-24T16:01:23.152Z,4.60
2022-10-24T16:03:50.951Z,1.52
2022-10-24T16:06:20.825Z,2.78
2022-10-24T16:08:48.653Z,4.15
2022-10-24T16:11:16.616Z,1.70
2022-10-24T16:13:44.594Z,1.60
2022-10-24T16:16:12.462Z,2.58
2022-10-24T16:18:40.151Z,1.73
2022-10-24T16:21:07.916Z,3.08
2022-10-24T16:23:36.977Z,3.22
2022-10-24T16:26:04.704Z,3.10
2022-10-24T16:28:32.387Z,1.95
2022-10-24T16:31:00.085Z,2.58
2022-10-24T16:33:27.779Z,3.72
2022-10-24T16:35:55.463Z,2.53
2022-10-24T16:38:23.151Z,2.88
2022-10-24T16:40:54.013Z,1.48
2022-10-24T16:43:22.046Z,2.20
2022-10-24T16:45:57.623Z,1.70
2022-10-24T16:50:53.223Z,5.00
2022-10-24T16:53:21.748Z,3.08
2022-10-24T16:55:50.479Z,2.05
2022-10-24T16:58:23.044Z,3.65
2022-10-24T17:00:50.930Z,4.43
2022-10-24T17:03:18.684Z,4.25
2022-10-24T17:05:49.808Z,3.47
2022-10-24T17:08:17.479Z,4.75
2022-10-24T17:10:45.260Z,3.92
2022-10-24T17:13:12.963Z,3.42
2022-10-24T17:15:42.322Z,1.70
2022-10-24T17:18:11.510Z,3.30
2022-10-24T17:20:43.373Z,4.03
2022-10-24T17:23:12.906Z,2.60
2022-10-24T17:25:44.065Z,1.38
2022-10-24T17:28:16.793Z,2.25
2022-10-24T17:30:48.795Z,2.45
2022-10-24T17:33:16.747Z,1.33
2022-10-24T17:35:48.545Z,2.47
2022-10-24T17:38:33.190Z,3.08
2022-10-24T17:41:14.020Z,4.43
2022-10-24T17:43:42.157Z,3.60
2022-10-24T17:46:14.158Z,4.47
2022-10-24T17:48:41.989Z,4.68
2022-10-24T17:51:12.286Z,4.05
2022-10-24T17:53:39.978Z,5.95
2022-10-24T17:56:08.581Z,7.00
2022-10-24T17:58:36.404Z,6.13
2022-10-24T18:01:04.155Z,10.18
2022-10-24T18:03:33.893Z,6.47
2022-10-24T18:06:03.226Z,6.72
2022-10-24T18:08:34.223Z,6.38
2022-10-24T18:11:02.461Z,5.53
2022-10-24T18:13:30.450Z,4.88
2022-10-24T18:15:58.122Z,6.60
2022-10-24T18:18:25.989Z,2.80
2022-10-24T18:21:05.874Z,3.30
2022-10-24T18:23:35.241Z,3.42
2022-10-24T18:26:07.568Z,6.18
2022-10-24T18:28:37.960Z,5.32
2022-10-24T18:31:09.795Z,4.57
2022-10-24T18:33:37.719Z,2.35
2022-10-24T18:36:08.978Z,3.72
2022-10-24T18:38:37.322Z,4.22
2022-10-24T18:41:05.478Z,2.42
2022-10-24T18:43:33.478Z,3.72
2022-10-24T18:46:01.904Z,5.30
2022-10-24T18:48:30.278Z,5.75
2022-10-24T18:50:58.377Z,2.08
2022-10-24T18:53:34.081Z,3.17
2022-10-24T18:56:02.023Z,2.08
2022-10-24T18:58:29.805Z,2.13
2022-10-24T19:00:59.939Z,1.70
2022-10-24T19:03:33.605Z,1.65
2022-10-24T19:06:11.673Z,5.50
2022-10-24T19:08:41.078Z,1.27
2022-10-24T19:13:42.982Z,6.00
2022-10-24T19:16:16.334Z,2.33
2022-10-24T19:18:49.223Z,3.10
2022-10-24T19:21:19.569Z,3.58
2022-10-24T19:23:49.313Z,2.72
2022-10-24T19:26:17.211Z,2.25
2022-10-24T19:28:45.310Z,5.07
2022-10-24T19:31:14.844Z,2.63
2022-10-24T19:33:42.563Z,3.67
2022-10-24T19:36:14.327Z,6.25
2022-10-24T19:38:44.793Z,2.42
2022-10-24T19:41:14.037Z,7.50
2022-10-24T19:43:41.727Z,3.30
2022-10-24T19:46:24.925Z,1.98
2022-10-24T19:48:53.364Z,5.03
2022-10-24T19:51:22.995Z,1.35
2022-10-24T19:53:52.536Z,1.88
2022-10-24T19:56:25.267Z,4.10
2022-10-24T19:58:53.920Z,2.40
2022-10-24T20:01:23.714Z,1.55
2022-10-24T20:03:52.412Z,2.60
2022-10-24T20:06:20.367Z,1.52
2022-10-24T20:08:49.972Z,4.28
2022-10-24T20:11:20.323Z,1.55
2022-10-24T20:13:50.625Z,6.05
2022-10-24T20:16:18.934Z,3.78
2022-10-24T20:18:47.689Z,2.30
2022-10-24T20:21:18.628Z,3.88
2022-10-24T20:23:47.852Z,1.95
2022-10-24T20:26:17.543Z,1.27
2022-10-24T20:28:47.226Z,2.97
2022-10-24T20:31:24.750Z,3.72
2022-10-24T20:33:53.304Z,4.95
2022-10-24T20:36:23.438Z,1.65
2022-10-24T20:38:51.253Z,3.55
2022-10-24T20:41:18.931Z,2.05
2022-10-24T20:43:46.719Z,2.72
2022-10-24T20:46:14.821Z,5.35
2022-10-24T20:48:43.964Z,5.47
2022-10-24T20:51:13.482Z,9.15
2022-10-24T20:53:42.492Z,7.28
2022-10-24T20:56:13.446Z,5.57
2022-10-24T20:58:42.783Z,7.00
2022-10-24T21:01:13.413Z,4.45
2022-10-24T21:03:43.324Z,3.42
2022-10-24T21:06:16.859Z,7.60
2022-10-24T21:08:48.448Z,3.22
2022-10-24T21:11:17.414Z,4.28
2022-10-24T21:13:46.492Z,7.13
2022-10-24T21:16:17.527Z,3.42
2022-10-24T21:18:46.605Z,2.42
2022-10-24T21:21:16.169Z,2.58
2022-10-24T21:23:50.721Z,5.95
2022-10-24T21:26:19.343Z,6.13
2022-10-24T21:28:47.039Z,3.63
2022-10-24T21:31:16.403Z,6.53
2022-10-24T21:33:44.581Z,3.03
2022-10-24T21:36:15.433Z,2.92
2022-10-24T21:38:43.690Z,4.10
2022-10-24T21:41:11.630Z,4.82
2022-10-24T21:43:41.361Z,1.75
2022-10-24T21:46:11.012Z,5.93
2022-10-24T21:48:40.344Z,1.95
2022-10-24T21:51:10.889Z,4.07
2022-10-24T21:53:41.121Z,2.10
2022-10-24T21:56:10.874Z,1.40
2022-10-24T21:58:39.489Z,2.42
2022-10-24T22:01:11.762Z,1.67
2022-10-24T22:03:40.125Z,4.85
2022-10-24T22:06:08.541Z,3.10
2022-10-24T22:08:36.151Z,3.78
2022-10-24T22:11:06.742Z,2.65
2022-10-24T22:13:35.837Z,6.07
2022-10-24T22:16:04.347Z,5.00
2022-10-24T22:18:33.803Z,4.07
2022-10-24T22:21:02.983Z,6.47
2022-10-24T22:23:31.249Z,3.85
2022-10-24T22:26:01.121Z,1.90
2022-10-24T22:28:30.121Z,3.15
2022-10-24T22:30:58.310Z,1.98
2022-10-24T22:33:34.136Z,2.03
2022-10-24T22:36:07.592Z,2.92
2022-10-24T22:38:38.214Z,2.10
2022-10-24T22:41:06.394Z,2.05
2022-10-24T22:43:36.171Z,4.53
2022-10-24T22:46:12.419Z,3.42
2022-10-24T22:48:47.811Z,4.10
2022-10-24T22:51:17.317Z,3.55
2022-10-24T22:53:45.672Z,2.55
2022-10-24T22:56:17.124Z,4.38
2022-10-24T23:04:58.244Z,4.60
2022-10-24T23:07:28.146Z,4.75
2022-10-24T23:09:57.236Z,3.28
2022-10-24T23:12:25.421Z,4.00
2022-10-24T23:14:54.323Z,1.88
2022-10-24T23:17:24.752Z,2.90
2022-10-24T23:19:55.225Z,2.28
2022-10-24T23:22:25.379Z,3.30
2022-10-24T23:24:55.058Z,5.82
2022-10-24T23:27:33.778Z,2.60
2022-10-24T23:30:02.571Z,2.55
2022-10-24T23:32:35.297Z,2.60
2022-10-24T23:35:05.361Z,4.32
2022-10-24T23:37:35.473Z,3.25
2022-10-24T23:40:13.305Z,4.53
2022-10-24T23:42:41.819Z,12.98
2022-10-24T23:45:13.275Z,5.68
2022-10-24T23:47:58.929Z,7.32
2022-10-24T23:50:35.266Z,4.97
2022-10-24T23:53:24.726Z,4.30
2022-10-24T23:55:53.117Z,16.13
2022-10-24T23:58:21.163Z,10.82
